sensor_id;sensor_type;location;lat;lon;timestamp;pressure;altitude;pressure_sealevel;temperature
31921;BMP280;66485;52.128;4.436;2023-04-06T00:00:22;101887.91;;;18.69
31921;BMP280;66485;52.128;4.436;2023-04-06T00:02:47;101887.09;;;18.72
31921;BMP280;66485;52.128;4.436;2023-04-06T00:05:13;101887.16;;;18.65
31921;BMP280;66485;52.128;4.436;2023-04-06T00:07:38;101886.72;;;18.70
31921;BMP280;66485;52.128;4.436;2023-04-06T00:10:03;101879.75;;;18.62
31921;BMP280;66485;52.128;4.436;2023-04-06T00:12:29;101881.28;;;18.70
31921;BMP280;66485;52.128;4.436;2023-04-06T00:14:55;101877.47;;;18.64
31921;BMP280;66485;52.128;4.436;2023-04-06T00:17:20;101869.69;;;18.59
31921;BMP280;66485;52.128;4.436;2023-04-06T00:19:45;101866.19;;;18.58
31921;BMP280;66485;52.128;4.436;2023-04-06T00:22:11;101868.91;;;18.62
31921;BMP280;66485;52.128;4.436;2023-04-06T00:24:36;101863.09;;;18.60
31921;BMP280;66485;52.128;4.436;2023-04-06T00:27:01;101857.25;;;18.61
31921;BMP280;66485;52.128;4.436;2023-04-06T00:29:27;101857.25;;;18.61
31921;BMP280;66485;52.128;4.436;2023-04-06T00:31:52;101847.22;;;18.58
31921;BMP280;66485;52.128;4.436;2023-04-06T00:34:17;101842.94;;;18.57
31921;BMP280;66485;52.128;4.436;2023-04-06T00:36:43;101847.19;;;18.51
31921;BMP280;66485;52.128;4.436;2023-04-06T00:39:08;101847.19;;;18.51
31921;BMP280;66485;52.128;4.436;2023-04-06T00:41:33;101835.97;;;18.52
31921;BMP280;66485;52.128;4.436;2023-04-06T00:43:59;101835.19;;;18.55
31921;BMP280;66485;52.128;4.436;2023-04-06T00:46:24;101838.28;;;18.58
31921;BMP280;66485;52.128;4.436;2023-04-06T00:48:49;101828.97;;;18.51
31921;BMP280;66485;52.128;4.436;2023-04-06T00:51:15;101827.84;;;18.52
31921;BMP280;66485;52.128;4.436;2023-04-06T00:53:40;101820.47;;;18.49
31921;BMP280;66485;52.128;4.436;2023-04-06T00:56:06;101820.47;;;18.49
31921;BMP280;66485;52.128;4.436;2023-04-06T00:58:31;101815.47;;;18.44
31921;BMP280;66485;52.128;4.436;2023-04-06T01:00:57;101816.59;;;18.50
31921;BMP280;66485;52.128;4.436;2023-04-06T01:03:23;101815.06;;;18.53
31921;BMP280;66485;52.128;4.436;2023-04-06T01:05:48;101806.13;;;18.52
31921;BMP280;66485;52.128;4.436;2023-04-06T01:08:13;101801.50;;;18.53
31921;BMP280;66485;52.128;4.436;2023-04-06T01:10:39;101796.41;;;18.51
31921;BMP280;66485;52.128;4.436;2023-04-06T01:13:04;101796.41;;;18.51
31921;BMP280;66485;52.128;4.436;2023-04-06T01:15:30;101796.41;;;18.51
31921;BMP280;66485;52.128;4.436;2023-04-06T01:17:55;101793.72;;;18.51
31921;BMP280;66485;52.128;4.436;2023-04-06T01:20:21;101793.72;;;18.51
31921;BMP280;66485;52.128;4.436;2023-04-06T01:22:46;101781.75;;;18.45
31921;BMP280;66485;52.128;4.436;2023-04-06T01:25:11;101774.75;;;18.48
31921;BMP280;66485;52.128;4.436;2023-04-06T01:27:36;101773.19;;;18.47
31921;BMP280;66485;52.128;4.436;2023-04-06T01:30:02;101778.63;;;18.47
31921;BMP280;66485;52.128;4.436;2023-04-06T01:32:28;101780.16;;;18.48
31921;BMP280;66485;52.128;4.436;2023-04-06T01:34:53;101767.41;;;18.45
31921;BMP280;66485;52.128;4.436;2023-04-06T01:37:20;101769.72;;;18.39
31921;BMP280;66485;52.128;4.436;2023-04-06T01:39:45;101773.59;;;18.38
31921;BMP280;66485;52.128;4.436;2023-04-06T01:42:12;101758.47;;;18.37
31921;BMP280;66485;52.128;4.436;2023-04-06T01:44:37;101756.94;;;18.29
31921;BMP280;66485;52.128;4.436;2023-04-06T01:47:03;101756.94;;;18.29
31921;BMP280;66485;52.128;4.436;2023-04-06T01:49:28;101751.53;;;18.36
31921;BMP280;66485;52.128;4.436;2023-04-06T01:51:53;101753.06;;;18.37
31921;BMP280;66485;52.128;4.436;2023-04-06T01:54:19;101751.50;;;18.40
31921;BMP280;66485;52.128;4.436;2023-04-06T01:56:45;101739.50;;;18.41
31921;BMP280;66485;52.128;4.436;2023-04-06T01:59:10;101744.13;;;18.37
31921;BMP280;66485;52.128;4.436;2023-04-06T02:01:36;101744.56;;;18.35
31921;BMP280;66485;52.128;4.436;2023-04-06T02:04:01;101742.59;;;18.39
31921;BMP280;66485;52.128;4.436;2023-04-06T02:06:26;101735.63;;;18.38
31921;BMP280;66485;52.128;4.436;2023-04-06T02:08:52;101735.63;;;18.38
31921;BMP280;66485;52.128;4.436;2023-04-06T02:11:17;101727.13;;;18.33
31921;BMP280;66485;52.128;4.436;2023-04-06T02:13:43;101722.84;;;18.35
31921;BMP280;66485;52.128;4.436;2023-04-06T02:16:08;101727.13;;;18.33
31921;BMP280;66485;52.128;4.436;2023-04-06T02:18:33;101719.75;;;18.30
31921;BMP280;66485;52.128;4.436;2023-04-06T02:20:59;101713.56;;;18.33
31921;BMP280;66485;52.128;4.436;2023-04-06T02:23:24;101720.53;;;18.34
31921;BMP280;66485;52.128;4.436;2023-04-06T02:25:49;101712.00;;;18.28
31921;BMP280;66485;52.128;4.436;2023-04-06T02:28:15;101708.91;;;18.30
31921;BMP280;66485;52.128;4.436;2023-04-06T02:30:40;101712.38;;;18.30
31921;BMP280;66485;52.128;4.436;2023-04-06T02:33:05;101706.22;;;18.26
31921;BMP280;66485;52.128;4.436;2023-04-06T02:35:31;101711.63;;;18.30
31921;BMP280;66485;52.128;4.436;2023-04-06T02:37:56;101704.66;;;18.29
31921;BMP280;66485;52.128;4.436;2023-04-06T02:40:22;101709.28;;;18.28
31921;BMP280;66485;52.128;4.436;2023-04-06T02:42:47;101709.28;;;18.28
31921;BMP280;66485;52.128;4.436;2023-04-06T02:45:12;101702.34;;;18.24
31921;BMP280;66485;52.128;4.436;2023-04-06T02:47:38;101697.34;;;18.22
31921;BMP280;66485;52.128;4.436;2023-04-06T02:50:03;101698.84;;;18.23
31921;BMP280;66485;52.128;4.436;2023-04-06T02:52:29;101691.53;;;18.20
31921;BMP280;66485;52.128;4.436;2023-04-06T02:54:54;101698.09;;;18.15
31921;BMP280;66485;52.128;4.436;2023-04-06T02:57:19;101684.94;;;18.17
31921;BMP280;66485;52.128;4.436;2023-04-06T02:59:45;101679.91;;;18.16
31921;BMP280;66485;52.128;4.436;2023-04-06T03:02:11;101678.31;;;18.18
31921;BMP280;66485;52.128;4.436;2023-04-06T03:04:37;101678.31;;;18.18
31921;BMP280;66485;52.128;4.436;2023-04-06T03:07:02;101679.91;;;18.16
31921;BMP280;66485;52.128;4.436;2023-04-06T03:09:27;101681.81;;;18.19
31921;BMP280;66485;52.128;4.436;2023-04-06T03:11:53;101682.63;;;18.12
31921;BMP280;66485;52.128;4.436;2023-04-06T03:14:18;101669.44;;;18.14
31921;BMP280;66485;52.128;4.436;2023-04-06T03:16:47;101676.03;;;18.17
31921;BMP280;66485;52.128;4.436;2023-04-06T03:19:12;101676.81;;;18.17
31921;BMP280;66485;52.128;4.436;2023-04-06T03:21:38;101670.59;;;18.17
31921;BMP280;66485;52.128;4.436;2023-04-06T03:24:04;101669.06;;;18.12
31921;BMP280;66485;52.128;4.436;2023-04-06T03:26:30;101663.25;;;18.10
31921;BMP280;66485;52.128;4.436;2023-04-06T03:28:55;101669.06;;;18.16
31921;BMP280;66485;52.128;4.436;2023-04-06T03:31:20;101664.81;;;18.11
31921;BMP280;66485;52.128;4.436;2023-04-06T03:33:45;101656.66;;;18.15
31921;BMP280;66485;52.128;4.436;2023-04-06T03:36:11;101657.06;;;18.06
31921;BMP280;66485;52.128;4.436;2023-04-06T03:38:36;101661.31;;;18.11
31921;BMP280;66485;52.128;4.436;2023-04-06T03:41:01;101653.56;;;18.09
31921;BMP280;66485;52.128;4.436;2023-04-06T03:43:27;101650.09;;;18.09
31921;BMP280;66485;52.128;4.436;2023-04-06T03:45:52;101650.09;;;18.09
31921;BMP280;66485;52.128;4.436;2023-04-06T03:48:17;101648.94;;;18.10
31921;BMP280;66485;52.128;4.436;2023-04-06T03:50:42;101648.53;;;18.08
31921;BMP280;66485;52.128;4.436;2023-04-06T03:53:08;101648.53;;;18.08
31921;BMP280;66485;52.128;4.436;2023-04-06T03:55:33;101641.16;;;18.08
31921;BMP280;66485;52.128;4.436;2023-04-06T03:57:59;101641.16;;;18.08
31921;BMP280;66485;52.128;4.436;2023-04-06T04:00:24;101650.47;;;18.04
31921;BMP280;66485;52.128;4.436;2023-04-06T04:02:50;101637.72;;;18.01
31921;BMP280;66485;52.128;4.436;2023-04-06T04:05:15;101636.56;;;18.02
31921;BMP280;66485;52.128;4.436;2023-04-06T04:07:41;101644.31;;;18.00
31921;BMP280;66485;52.128;4.436;2023-04-06T04:10:06;101635.41;;;17.99
31921;BMP280;66485;52.128;4.436;2023-04-06T04:12:32;101641.97;;;18.02
31921;BMP280;66485;52.128;4.436;2023-04-06T04:14:57;101641.97;;;18.02
31921;BMP280;66485;52.128;4.436;2023-04-06T04:17:22;101643.53;;;17.99
31921;BMP280;66485;52.128;4.436;2023-04-06T04:19:47;101643.53;;;17.99
31921;BMP280;66485;52.128;4.436;2023-04-06T04:22:13;101629.97;;;17.96
31921;BMP280;66485;52.128;4.436;2023-04-06T04:24:38;101640.81;;;17.96
31921;BMP280;66485;52.128;4.436;2023-04-06T04:27:03;101640.03;;;17.95
31921;BMP280;66485;52.128;4.436;2023-04-06T04:29:29;101642.38;;;17.93
31921;BMP280;66485;52.128;4.436;2023-04-06T04:31:55;101642.38;;;17.97
31921;BMP280;66485;52.128;4.436;2023-04-06T04:34:20;101641.59;;;17.96
31921;BMP280;66485;52.128;4.436;2023-04-06T04:36:46;101640.47;;;17.94
31921;BMP280;66485;52.128;4.436;2023-04-06T04:39:11;101640.47;;;17.94
31921;BMP280;66485;52.128;4.436;2023-04-06T04:41:36;101642.00;;;17.91
31921;BMP280;66485;52.128;4.436;2023-04-06T04:44:02;101642.38;;;17.90
31921;BMP280;66485;52.128;4.436;2023-04-06T04:46:27;101642.38;;;17.90
31921;BMP280;66485;52.128;4.436;2023-04-06T04:48:52;101635.03;;;17.90
31921;BMP280;66485;52.128;4.436;2023-04-06T04:51:18;101633.13;;;17.84
31921;BMP280;66485;52.128;4.436;2023-04-06T04:53:44;101633.91;;;17.88
31921;BMP280;66485;52.128;4.436;2023-04-06T04:56:10;101636.22;;;17.89
31921;BMP280;66485;52.128;4.436;2023-04-06T04:58:35;101636.22;;;17.89
31921;BMP280;66485;52.128;4.436;2023-04-06T05:01:07;101631.53;;;17.86
31921;BMP280;66485;52.128;4.436;2023-04-06T05:03:33;101631.97;;;17.88
31921;BMP280;66485;52.128;4.436;2023-04-06T05:05:58;101631.97;;;17.88
31921;BMP280;66485;52.128;4.436;2023-04-06T05:08:24;101634.63;;;17.85
31921;BMP280;66485;52.128;4.436;2023-04-06T05:10:50;101634.63;;;17.85
31921;BMP280;66485;52.128;4.436;2023-04-06T05:13:15;101624.59;;;17.82
31921;BMP280;66485;52.128;4.436;2023-04-06T05:15:41;101630.41;;;17.80
31921;BMP280;66485;52.128;4.436;2023-04-06T05:18:09;101629.25;;;17.81
31921;BMP280;66485;52.128;4.436;2023-04-06T05:20:35;101629.25;;;17.81
31921;BMP280;66485;52.128;4.436;2023-04-06T05:23:01;101630.00;;;17.74
31921;BMP280;66485;52.128;4.436;2023-04-06T05:25:26;101630.00;;;17.74
31921;BMP280;66485;52.128;4.436;2023-04-06T05:27:52;101628.50;;;17.77
31921;BMP280;66485;52.128;4.436;2023-04-06T05:30:17;101619.56;;;17.73
31921;BMP280;66485;52.128;4.436;2023-04-06T05:32:43;101619.56;;;17.73
31921;BMP280;66485;52.128;4.436;2023-04-06T05:35:09;101626.16;;;17.72
31921;BMP280;66485;52.128;4.436;2023-04-06T05:37:35;101626.16;;;17.72
31921;BMP280;66485;52.128;4.436;2023-04-06T05:40:00;101622.28;;;17.73
31921;BMP280;66485;52.128;4.436;2023-04-06T05:42:26;101616.88;;;17.69
31921;BMP280;66485;52.128;4.436;2023-04-06T05:44:52;101616.47;;;17.71
31921;BMP280;66485;52.128;4.436;2023-04-06T05:47:17;101616.47;;;17.71
31921;BMP280;66485;52.128;4.436;2023-04-06T05:49:43;101612.25;;;17.66
31921;BMP280;66485;52.128;4.436;2023-04-06T05:52:08;101609.94;;;17.68
31921;BMP280;66485;52.128;4.436;2023-04-06T05:54:35;101608.38;;;17.67
31921;BMP280;66485;52.128;4.436;2023-04-06T05:57:02;101611.09;;;17.67
31921;BMP280;66485;52.128;4.436;2023-04-06T05:59:27;101608.75;;;17.73
31921;BMP280;66485;52.128;4.436;2023-04-06T06:01:53;101613.75;;;17.71
31921;BMP280;66485;52.128;4.436;2023-04-06T06:04:18;101613.41;;;17.69
31921;BMP280;66485;52.128;4.436;2023-04-06T06:06:43;101612.22;;;17.70
31921;BMP280;66485;52.128;4.436;2023-04-06T06:09:08;101609.13;;;17.71
31921;BMP280;66485;52.128;4.436;2023-04-06T06:11:34;101616.88;;;17.69
31921;BMP280;66485;52.128;4.436;2023-04-06T06:13:59;101616.88;;;17.69
31921;BMP280;66485;52.128;4.436;2023-04-06T06:16:24;101611.09;;;17.67
31921;BMP280;66485;52.128;4.436;2023-04-06T06:18:50;101615.34;;;17.68
31921;BMP280;66485;52.128;4.436;2023-04-06T06:21:15;101615.34;;;17.68
31921;BMP280;66485;52.128;4.436;2023-04-06T06:23:42;101616.13;;;17.69
31921;BMP280;66485;52.128;4.436;2023-04-06T06:26:07;101615.69;;;17.70
31921;BMP280;66485;52.128;4.436;2023-04-06T06:28:33;101615.69;;;17.70
31921;BMP280;66485;52.128;4.436;2023-04-06T06:30:58;101611.84;;;17.71
31921;BMP280;66485;52.128;4.436;2023-04-06T06:33:23;101611.84;;;17.71
31921;BMP280;66485;52.128;4.436;2023-04-06T06:35:49;101623.44;;;17.72
31921;BMP280;66485;52.128;4.436;2023-04-06T06:38:16;101619.56;;;17.73
31921;BMP280;66485;52.128;4.436;2023-04-06T06:40:41;101616.47;;;17.74
31921;BMP280;66485;52.128;4.436;2023-04-06T06:43:07;101618.81;;;17.72
31921;BMP280;66485;52.128;4.436;2023-04-06T06:45:32;101620.75;;;17.72
31921;BMP280;66485;52.128;4.436;2023-04-06T06:47:58;101620.75;;;17.72
31921;BMP280;66485;52.128;4.436;2023-04-06T06:50:23;101614.94;;;17.66
31921;BMP280;66485;52.128;4.436;2023-04-06T06:52:48;101614.94;;;17.66
31921;BMP280;66485;52.128;4.436;2023-04-06T06:55:14;101614.16;;;17.73
31921;BMP280;66485;52.128;4.436;2023-04-06T06:57:40;101610.69;;;17.69
31921;BMP280;66485;52.128;4.436;2023-04-06T07:00:08;101604.09;;;17.70
31921;BMP280;66485;52.128;4.436;2023-04-06T07:02:34;101604.09;;;17.70
31921;BMP280;66485;52.128;4.436;2023-04-06T07:05:01;101591.72;;;17.69
31921;BMP280;66485;52.128;4.436;2023-04-06T07:07:26;101597.16;;;17.69
31921;BMP280;66485;52.128;4.436;2023-04-06T07:09:52;101597.16;;;17.69
31921;BMP280;66485;52.128;4.436;2023-04-06T07:12:17;101603.34;;;17.69
31921;BMP280;66485;52.128;4.436;2023-04-06T07:14:43;101603.34;;;17.69
31921;BMP280;66485;52.128;4.436;2023-04-06T07:17:08;101598.31;;;17.68
31921;BMP280;66485;52.128;4.436;2023-04-06T07:19:34;101603.34;;;17.69
31921;BMP280;66485;52.128;4.436;2023-04-06T07:21:59;101593.25;;;17.73
31921;BMP280;66485;52.128;4.436;2023-04-06T07:24:26;101588.25;;;17.68
31921;BMP280;66485;52.128;4.436;2023-04-06T07:26:51;101587.44;;;17.71
31921;BMP280;66485;52.128;4.436;2023-04-06T07:29:16;101587.44;;;17.71
31921;BMP280;66485;52.128;4.436;2023-04-06T07:31:43;101578.56;;;17.67
31921;BMP280;66485;52.128;4.436;2023-04-06T07:34:08;101578.56;;;17.67
31921;BMP280;66485;52.128;4.436;2023-04-06T07:36:33;101580.88;;;17.72
31921;BMP280;66485;52.128;4.436;2023-04-06T07:38:59;101582.41;;;17.73
31921;BMP280;66485;52.128;4.436;2023-04-06T07:41:24;101581.22;;;17.74
31921;BMP280;66485;52.128;4.436;2023-04-06T07:43:49;101585.91;;;17.77
31921;BMP280;66485;52.128;4.436;2023-04-06T07:46:15;101572.00;;;17.68
31921;BMP280;66485;52.128;4.436;2023-04-06T07:48:40;101577.78;;;17.70
31921;BMP280;66485;52.128;4.436;2023-04-06T07:51:06;101570.44;;;17.67
31921;BMP280;66485;52.128;4.436;2023-04-06T07:53:31;101572.75;;;17.69
31921;BMP280;66485;52.128;4.436;2023-04-06T07:55:58;101570.81;;;17.66
31921;BMP280;66485;52.128;4.436;2023-04-06T07:58:24;101577.78;;;17.67
31921;BMP280;66485;52.128;4.436;2023-04-06T08:00:49;101578.56;;;17.67
31921;BMP280;66485;52.128;4.436;2023-04-06T08:03:14;101566.56;;;17.68
31921;BMP280;66485;52.128;4.436;2023-04-06T08:05:41;101578.97;;;17.69
31921;BMP280;66485;52.128;4.436;2023-04-06T08:08:06;101572.75;;;17.69
31921;BMP280;66485;52.128;4.436;2023-04-06T08:10:32;101572.75;;;17.69
31921;BMP280;66485;52.128;4.436;2023-04-06T08:12:59;101577.00;;;17.70
31921;BMP280;66485;52.128;4.436;2023-04-06T08:15:24;101578.94;;;17.66
31921;BMP280;66485;52.128;4.436;2023-04-06T08:17:50;101580.84;;;17.65
31921;BMP280;66485;52.128;4.436;2023-04-06T08:20:15;101580.84;;;17.65
31921;BMP280;66485;52.128;4.436;2023-04-06T08:22:40;101582.44;;;17.66
31921;BMP280;66485;52.128;4.436;2023-04-06T08:25:06;101574.31;;;17.59
31921;BMP280;66485;52.128;4.436;2023-04-06T08:27:31;101586.31;;;17.58
31921;BMP280;66485;52.128;4.436;2023-04-06T08:29:57;101586.31;;;17.58
31921;BMP280;66485;52.128;4.436;2023-04-06T08:32:22;101584.75;;;17.64
31921;BMP280;66485;52.128;4.436;2023-04-06T08:34:47;101589.78;;;17.66
31921;BMP280;66485;52.128;4.436;2023-04-06T08:37:12;101582.81;;;17.65
31921;BMP280;66485;52.128;4.436;2023-04-06T08:39:38;101585.53;;;17.61
31921;BMP280;66485;52.128;4.436;2023-04-06T08:42:03;101579.72;;;17.63
31921;BMP280;66485;52.128;4.436;2023-04-06T08:44:29;101580.94;;;17.55
31921;BMP280;66485;52.128;4.436;2023-04-06T08:46:55;101576.63;;;17.64
31921;BMP280;66485;52.128;4.436;2023-04-06T08:49:21;101576.63;;;17.64
31921;BMP280;66485;52.128;4.436;2023-04-06T08:51:47;101577.41;;;17.65
31921;BMP280;66485;52.128;4.436;2023-04-06T08:54:12;101577.03;;;17.66
31921;BMP280;66485;52.128;4.436;2023-04-06T08:56:39;101572.38;;;17.67
31921;BMP280;66485;52.128;4.436;2023-04-06T08:59:05;101569.66;;;17.63
31921;BMP280;66485;52.128;4.436;2023-04-06T09:01:33;101566.56;;;17.65
31921;BMP280;66485;52.128;4.436;2023-04-06T09:03:59;101566.56;;;17.65
31921;BMP280;66485;52.128;4.436;2023-04-06T09:06:30;101569.28;;;17.68
31921;BMP280;66485;52.128;4.436;2023-04-06T09:08:56;101570.06;;;17.69
31921;BMP280;66485;52.128;4.436;2023-04-06T09:11:21;101570.06;;;17.69
31921;BMP280;66485;52.128;4.436;2023-04-06T09:13:51;101573.91;;;17.64
31921;BMP280;66485;52.128;4.436;2023-04-06T09:16:18;101573.16;;;17.67
31921;BMP280;66485;52.128;4.436;2023-04-06T09:18:43;101573.16;;;17.67
31921;BMP280;66485;52.128;4.436;2023-04-06T09:21:10;101565.41;;;17.66
31921;BMP280;66485;52.128;4.436;2023-04-06T09:23:35;101565.03;;;17.67
31921;BMP280;66485;52.128;4.436;2023-04-06T09:26:09;101568.50;;;17.64
31921;BMP280;66485;52.128;4.436;2023-04-06T09:28:52;101569.66;;;17.67
31921;BMP280;66485;52.128;4.436;2023-04-06T09:31:25;101568.88;;;17.66
31921;BMP280;66485;52.128;4.436;2023-04-06T09:33:51;101568.88;;;17.66
31921;BMP280;66485;52.128;4.436;2023-04-06T09:36:17;101567.31;;;17.65
31921;BMP280;66485;52.128;4.436;2023-04-06T09:38:54;101567.31;;;17.65
31921;BMP280;66485;52.128;4.436;2023-04-06T09:41:30;101563.84;;;17.65
31921;BMP280;66485;52.128;4.436;2023-04-06T09:46:27;101558.06;;;17.66
31921;BMP280;66485;52.128;4.436;2023-04-06T09:48:53;101558.06;;;17.66
31921;BMP280;66485;52.128;4.436;2023-04-06T09:51:19;101552.63;;;17.66
31921;BMP280;66485;52.128;4.436;2023-04-06T09:53:47;101554.16;;;17.71
31921;BMP280;66485;52.128;4.436;2023-04-06T09:56:17;101546.81;;;17.71
31921;BMP280;66485;52.128;4.436;2023-04-06T09:58:46;101549.53;;;17.68
31921;BMP280;66485;52.128;4.436;2023-04-06T10:01:15;101547.22;;;17.66
31921;BMP280;66485;52.128;4.436;2023-04-06T10:03:52;101545.28;;;17.67
31921;BMP280;66485;52.128;4.436;2023-04-06T10:06:21;101545.28;;;17.67
31921;BMP280;66485;52.128;4.436;2023-04-06T10:08:49;101536.00;;;17.64
31921;BMP280;66485;52.128;4.436;2023-04-06T10:11:15;101545.28;;;17.63
31921;BMP280;66485;52.128;4.436;2023-04-06T10:13:41;101545.28;;;17.63
31921;BMP280;66485;52.128;4.436;2023-04-06T10:16:07;101532.91;;;17.62
31921;BMP280;66485;52.128;4.436;2023-04-06T10:18:33;101532.47;;;17.71
31921;BMP280;66485;52.128;4.436;2023-04-06T10:21:06;101534.84;;;17.69
31921;BMP280;66485;52.128;4.436;2023-04-06T10:23:39;101529.41;;;17.62
31921;BMP280;66485;52.128;4.436;2023-04-06T10:26:13;101529.41;;;17.62
31921;BMP280;66485;52.128;4.436;2023-04-06T10:28:41;101523.22;;;17.61
31921;BMP280;66485;52.128;4.436;2023-04-06T10:31:06;101519.75;;;17.64
31921;BMP280;66485;52.128;4.436;2023-04-06T10:33:32;101519.75;;;17.64
31921;BMP280;66485;52.128;4.436;2023-04-06T10:35:58;101524.00;;;17.62
31921;BMP280;66485;52.128;4.436;2023-04-06T10:38:34;101524.00;;;17.62
31921;BMP280;66485;52.128;4.436;2023-04-06T10:41:11;101516.63;;;17.62
31921;BMP280;66485;52.128;4.436;2023-04-06T10:43:38;101515.09;;;17.65
31921;BMP280;66485;52.128;4.436;2023-04-06T10:46:05;101515.09;;;17.65
31921;BMP280;66485;52.128;4.436;2023-04-06T10:48:39;101516.25;;;17.64
31921;BMP280;66485;52.128;4.436;2023-04-06T10:51:13;101516.25;;;17.64
31921;BMP280;66485;52.128;4.436;2023-04-06T10:53:41;101504.66;;;17.63
31921;BMP280;66485;52.128;4.436;2023-04-06T10:56:11;101506.56;;;17.63
31921;BMP280;66485;52.128;4.436;2023-04-06T10:58:37;101504.66;;;17.56
31921;BMP280;66485;52.128;4.436;2023-04-06T11:01:03;101504.66;;;17.56
31921;BMP280;66485;52.128;4.436;2023-04-06T11:03:28;101491.88;;;17.64
31921;BMP280;66485;52.128;4.436;2023-04-06T11:05:54;101490.31;;;17.66
31921;BMP280;66485;52.128;4.436;2023-04-06T11:10:48;101496.50;;;17.67
31921;BMP280;66485;52.128;4.436;2023-04-06T11:13:14;101491.47;;;17.62
31921;BMP280;66485;52.128;4.436;2023-04-06T11:15:40;101485.72;;;17.56
31921;BMP280;66485;52.128;4.436;2023-04-06T11:18:05;101486.88;;;17.55
31921;BMP280;66485;52.128;4.436;2023-04-06T11:20:30;101486.88;;;17.55
31921;BMP280;66485;52.128;4.436;2023-04-06T11:22:56;101490.72;;;17.51
31921;BMP280;66485;52.128;4.436;2023-04-06T11:25:22;101490.72;;;17.51
31921;BMP280;66485;52.128;4.436;2023-04-06T11:27:47;101482.63;;;17.47
31921;BMP280;66485;52.128;4.436;2023-04-06T11:30:13;101464.44;;;17.48
31921;BMP280;66485;52.128;4.436;2023-04-06T11:32:41;101472.56;;;17.55
31921;BMP280;66485;52.128;4.436;2023-04-06T11:35:10;101472.56;;;17.55
31921;BMP280;66485;52.128;4.436;2023-04-06T11:37:36;101474.91;;;17.42
31921;BMP280;66485;52.128;4.436;2023-04-06T11:40:01;101474.91;;;17.42
31921;BMP280;66485;52.128;4.436;2023-04-06T11:42:28;101472.97;;;17.46
31921;BMP280;66485;52.128;4.436;2023-04-06T11:44:56;101472.56;;;17.48
31921;BMP280;66485;52.128;4.436;2023-04-06T11:47:27;101459.81;;;17.48
31921;BMP280;66485;52.128;4.436;2023-04-06T11:49:53;101467.53;;;17.46
31921;BMP280;66485;52.128;4.436;2023-04-06T11:52:22;101467.53;;;17.46
31921;BMP280;66485;52.128;4.436;2023-04-06T11:54:49;101455.94;;;17.46
31921;BMP280;66485;52.128;4.436;2023-04-06T11:57:15;101455.94;;;17.46
31921;BMP280;66485;52.128;4.436;2023-04-06T11:59:41;101453.63;;;17.40
31921;BMP280;66485;52.128;4.436;2023-04-06T12:02:07;101453.63;;;17.40
31921;BMP280;66485;52.128;4.436;2023-04-06T12:04:32;101447.41;;;17.51
31921;BMP280;66485;52.128;4.436;2023-04-06T12:06:58;101447.81;;;17.49
31921;BMP280;66485;52.128;4.436;2023-04-06T12:09:23;101447.81;;;17.49
31921;BMP280;66485;52.128;4.436;2023-04-06T12:11:49;101452.03;;;17.50
31921;BMP280;66485;52.128;4.436;2023-04-06T12:14:14;101444.72;;;17.47
31921;BMP280;66485;52.128;4.436;2023-04-06T12:16:40;101444.72;;;17.47
31921;BMP280;66485;52.128;4.436;2023-04-06T12:19:06;101443.16;;;17.50
31921;BMP280;66485;52.128;4.436;2023-04-06T12:21:32;101442.00;;;17.47
31921;BMP280;66485;52.128;4.436;2023-04-06T12:23:58;101437.75;;;17.46
31921;BMP280;66485;52.128;4.436;2023-04-06T12:26:24;101439.31;;;17.44
31921;BMP280;66485;52.128;4.436;2023-04-06T12:28:50;101443.56;;;17.41
31921;BMP280;66485;52.128;4.436;2023-04-06T12:31:20;101442.03;;;17.40
31921;BMP280;66485;52.128;4.436;2023-04-06T12:33:50;101442.03;;;17.40
31921;BMP280;66485;52.128;4.436;2023-04-06T12:36:16;101442.81;;;17.44
31921;BMP280;66485;52.128;4.436;2023-04-06T12:38:48;101441.66;;;17.38
31921;BMP280;66485;52.128;4.436;2023-04-06T12:41:14;101441.66;;;17.38
31921;BMP280;66485;52.128;4.436;2023-04-06T12:43:42;101433.91;;;17.40
31921;BMP280;66485;52.128;4.436;2023-04-06T12:46:08;101433.91;;;17.40
31921;BMP280;66485;52.128;4.436;2023-04-06T12:48:33;101433.50;;;17.49
31921;BMP280;66485;52.128;4.436;2023-04-06T12:51:01;101433.50;;;17.49
31921;BMP280;66485;52.128;4.436;2023-04-06T12:53:27;101426.53;;;17.40
31921;BMP280;66485;52.128;4.436;2023-04-06T12:55:56;101425.03;;;17.39
31921;BMP280;66485;52.128;4.436;2023-04-06T12:58:22;101418.44;;;17.44
31921;BMP280;66485;52.128;4.436;2023-04-06T13:00:51;101417.28;;;17.38
31921;BMP280;66485;52.128;4.436;2023-04-06T13:03:19;101413.41;;;17.35
31921;BMP280;66485;52.128;4.436;2023-04-06T13:05:45;101414.16;;;17.43
31921;BMP280;66485;52.128;4.436;2023-04-06T13:08:12;101410.28;;;17.40
31921;BMP280;66485;52.128;4.436;2023-04-06T13:10:37;101405.66;;;17.41
31921;BMP280;66485;52.128;4.436;2023-04-06T13:13:03;101402.16;;;17.40
31921;BMP280;66485;52.128;4.436;2023-04-06T13:15:28;101400.25;;;17.37
31921;BMP280;66485;52.128;4.436;2023-04-06T13:17:54;101404.91;;;17.44
31921;BMP280;66485;52.128;4.436;2023-04-06T13:20:19;101402.59;;;17.39
31921;BMP280;66485;52.128;4.436;2023-04-06T13:22:44;101395.63;;;17.38
31921;BMP280;66485;52.128;4.436;2023-04-06T13:25:10;101397.59;;;17.34
31921;BMP280;66485;52.128;4.436;2023-04-06T13:27:35;101397.59;;;17.34
31921;BMP280;66485;52.128;4.436;2023-04-06T13:30:01;101392.88;;;17.41
31921;BMP280;66485;52.128;4.436;2023-04-06T13:32:27;101399.09;;;17.38
31921;BMP280;66485;52.128;4.436;2023-04-06T13:34:55;101401.81;;;17.38
31921;BMP280;66485;52.128;4.436;2023-04-06T13:37:21;101401.41;;;17.40
31921;BMP280;66485;52.128;4.436;2023-04-06T13:39:46;101401.41;;;17.40
31921;BMP280;66485;52.128;4.436;2023-04-06T13:42:11;101394.88;;;17.34
31921;BMP280;66485;52.128;4.436;2023-04-06T13:44:37;101392.94;;;17.34
31921;BMP280;66485;52.128;4.436;2023-04-06T13:47:02;101399.88;;;17.35
31921;BMP280;66485;52.128;4.436;2023-04-06T13:49:27;101399.88;;;17.35
31921;BMP280;66485;52.128;4.436;2023-04-06T13:51:52;101395.63;;;17.31
31921;BMP280;66485;52.128;4.436;2023-04-06T13:54:18;101399.88;;;17.32